Time;durP1;ratioP1;P1;durP2;ratioP2;P2;SDS_P1;SDS_P2;PMS_P1;PMS_P2;Temp;Humidity;BMP_temperature;BMP_pressure;BME280_temperature;BME280_humidity;BME280_pressure;Samples;Min_cycle;Max_cycle;Signal;HPM_P1;HPM_P2
2024/02/01 00:01:45;;;;;;;22.27;16.40;;;;;;;9.98;96.29;99342.84;4070303;29;20669;-85
2024/02/01 00:03:48;;;;;;;20.67;16.03;;;;;;;9.98;96.24;99340.25;4070236;29;20639;-85
2024/02/01 00:05:51;;;;;;;21.83;15.83;;;;;;;10.01;96.00;99341.84;4052888;29;20707;-85
2024/02/01 00:07:55;;;;;;;25.70;16.53;;;;;;;10.04;96.22;99339.97;4088531;28;20637;-86
2024/02/01 00:10:00;;;;;;;18.57;14.60;;;;;;;10.10;96.30;99341.41;4082945;28;20633;-85
2024/02/01 00:12:04;;;;;;;16.13;12.80;;;;;;;10.14;96.14;99341.22;4074800;29;20685;-85
2024/02/01 00:14:07;;;;;;;19.10;14.47;;;;;;;10.19;95.67;99338.38;4072099;29;20626;-87
2024/02/01 00:16:11;;;;;;;21.23;13.67;;;;;;;10.22;95.93;99339.09;4072704;29;21207;-86
2024/02/01 00:18:14;;;;;;;18.13;13.00;;;;;;;10.27;95.63;99336.25;4078126;29;20681;-86
2024/02/01 00:20:18;;;;;;;16.83;12.87;;;;;;;10.28;95.30;99333.56;4084963;28;20703;-86
2024/02/01 00:22:21;;;;;;;16.40;12.13;;;;;;;10.29;94.89;99324.84;4079384;29;20630;-85
2024/02/01 00:24:35;;;;;;;17.60;12.90;;;;;;;10.32;95.21;99329.91;4078489;29;20670;-86
2024/02/01 00:26:40;;;;;;;17.30;11.60;;;;;;;10.34;95.49;99328.06;4077145;29;20705;-86
2024/02/01 00:28:43;;;;;;;18.60;13.90;;;;;;;10.37;94.99;99328.78;4076013;29;20642;-86
2024/02/01 00:30:46;;;;;;;14.60;11.47;;;;;;;10.37;95.44;99322.72;4070351;29;20629;-86
2024/02/01 00:32:50;;;;;;;17.40;11.97;;;;;;;10.39;94.50;99320.91;4073940;29;20626;-86
2024/02/01 00:34:53;;;;;;;18.70;13.23;;;;;;;10.39;94.19;99326.13;4058808;29;20718;-86
2024/02/01 00:36:57;;;;;;;16.23;12.53;;;;;;;10.41;94.16;99325.09;4073123;29;20792;-86
2024/02/01 00:39:00;;;;;;;15.97;11.63;;;;;;;10.44;94.71;99327.56;4061162;29;21231;-86
2024/02/01 00:41:04;;;;;;;15.00;11.07;;;;;;;10.45;94.71;99323.22;4086185;28;20674;-86
2024/02/01 00:43:08;;;;;;;18.90;12.47;;;;;;;10.46;94.46;99335.31;4074969;29;21226;-86
2024/02/01 00:45:12;;;;;;;14.70;11.03;;;;;;;10.44;94.06;99329.34;4077078;29;20644;-86
2024/02/01 00:47:15;;;;;;;15.17;10.30;;;;;;;10.43;94.22;99338.06;4076233;29;20615;-85
2024/02/01 00:49:18;;;;;;;13.70;9.80;;;;;;;10.45;93.94;99328.44;4069240;29;20639;-85
2024/02/01 00:51:21;;;;;;;13.07;10.20;;;;;;;10.45;94.07;99337.09;4076721;29;20705;-83
2024/02/01 00:53:27;;;;;;;14.60;9.20;;;;;;;10.48;94.22;99333.50;4072943;29;20623;-86
2024/02/01 00:55:30;;;;;;;15.50;9.40;;;;;;;10.51;93.34;99333.34;4073541;29;20650;-86
2024/02/01 00:57:33;;;;;;;11.57;8.83;;;;;;;10.53;93.62;99331.50;4063572;29;20717;-86
2024/02/01 00:59:38;;;;;;;16.50;8.70;;;;;;;10.56;93.34;99334.81;4074740;29;20630;-86
2024/02/01 01:01:41;;;;;;;11.40;7.77;;;;;;;10.58;93.57;99348.59;4072800;29;20634;-86
2024/02/01 01:03:44;;;;;;;12.93;8.57;;;;;;;10.61;93.87;99337.19;4056754;29;20639;-86
2024/02/01 01:05:49;;;;;;;11.93;7.93;;;;;;;10.62;92.50;99346.72;4070300;29;20666;-86
2024/02/01 01:07:52;;;;;;;9.30;7.00;;;;;;;10.63;93.10;99353.59;4052553;29;20641;-86
2024/02/01 01:09:56;;;;;;;11.50;8.17;;;;;;;10.66;93.39;99340.41;4055376;29;20631;-87
2024/02/01 01:11:59;;;;;;;11.40;8.27;;;;;;;10.67;91.88;99347.31;4060209;29;20627;-86
2024/02/01 01:14:02;;;;;;;11.37;8.37;;;;;;;10.68;92.76;99349.03;4073031;29;20672;-86
2024/02/01 01:16:07;;;;;;;9.70;7.80;;;;;;;10.66;92.61;99349.09;4077493;29;20621;-86
2024/02/01 01:18:10;;;;;;;13.87;8.23;;;;;;;10.67;93.48;99347.31;4073661;29;21322;-86
2024/02/01 01:20:14;;;;;;;11.83;8.67;;;;;;;10.70;92.77;99357.63;4094428;28;20669;-86
2024/02/01 01:22:19;;;;;;;12.70;8.77;;;;;;;10.70;94.05;99348.00;4076311;29;20641;-86
2024/02/01 01:24:22;;;;;;;14.43;8.60;;;;;;;10.72;93.97;99355.75;4072828;29;20725;-85
2024/02/01 01:26:26;;;;;;;13.13;9.20;;;;;;;10.72;93.22;99345.31;4060696;29;21056;-86
2024/02/01 01:28:30;;;;;;;13.03;9.30;;;;;;;10.71;94.16;99344.50;4062762;29;20725;-85
2024/02/01 01:30:33;;;;;;;10.87;8.57;;;;;;;10.74;94.55;99340.91;4063116;29;21044;-85
2024/02/01 01:32:37;;;;;;;11.70;8.53;;;;;;;10.72;93.77;99345.31;4062724;29;20670;-85
2024/02/01 01:34:41;;;;;;;12.70;8.80;;;;;;;10.69;93.69;99346.34;4052992;29;20667;-85
2024/02/01 01:36:44;;;;;;;14.00;9.17;;;;;;;10.66;94.65;99348.22;4071026;29;20642;-85
2024/02/01 01:38:47;;;;;;;13.37;9.63;;;;;;;10.64;93.34;99358.75;4072951;29;20642;-86
2024/02/01 01:40:51;;;;;;;12.30;9.27;;;;;;;10.69;93.46;99356.78;4060381;29;20662;-85
2024/02/01 01:42:54;;;;;;;13.97;9.70;;;;;;;10.71;94.25;99359.31;4054057;29;21220;-85
2024/02/01 01:44:58;;;;;;;11.17;8.43;;;;;;;10.70;94.15;99357.63;4071599;29;20709;-85
2024/02/01 01:47:01;;;;;;;12.30;9.63;;;;;;;10.73;93.46;99357.47;4073513;29;20634;-86
2024/02/01 01:49:07;;;;;;;11.27;8.47;;;;;;;10.71;92.64;99354.09;4062888;29;20714;-85
2024/02/01 01:51:11;;;;;;;14.40;9.50;;;;;;;10.70;93.37;99355.84;4076146;29;20626;-86
2024/02/01 01:53:14;;;;;;;12.63;8.53;;;;;;;10.71;93.95;99367.97;4072322;29;20668;-85
2024/02/01 01:55:18;;;;;;;12.00;8.10;;;;;;;10.71;92.65;99361.94;4058886;29;21078;-86
2024/02/01 01:57:21;;;;;;;12.70;8.93;;;;;;;10.72;93.24;99371.41;4074119;29;20688;-86
2024/02/01 01:59:25;;;;;;;11.30;8.47;;;;;;;10.72;93.60;99367.06;4077333;29;20697;-85
2024/02/01 02:01:28;;;;;;;10.83;8.03;;;;;;;10.73;93.17;99363.50;4061662;29;20671;-86
2024/02/01 02:03:31;;;;;;;10.50;7.83;;;;;;;10.72;92.60;99363.59;4067477;29;20631;-86
2024/02/01 02:05:35;;;;;;;11.77;8.50;;;;;;;10.68;92.17;99357.69;4069663;29;20666;-86
2024/02/01 02:07:39;;;;;;;10.90;7.73;;;;;;;10.70;91.00;99357.63;4060663;29;21220;-86
2024/02/01 02:09:42;;;;;;;10.10;7.37;;;;;;;10.68;91.92;99355.06;4074132;29;20642;-86
2024/02/01 02:11:45;;;;;;;9.20;7.13;;;;;;;10.66;90.84;99345.63;4068274;29;20622;-86
2024/02/01 02:13:48;;;;;;;16.43;8.30;;;;;;;10.63;91.18;99349.25;4071755;29;20640;-86
2024/02/01 02:15:51;;;;;;;11.43;8.10;;;;;;;10.63;91.40;99346.63;4072235;29;20673;-86
2024/02/01 02:17:54;;;;;;;10.43;7.80;;;;;;;10.65;90.45;99346.56;4072510;29;20681;-87
2024/02/01 02:20:15;;;;;;;12.07;7.70;;;;;;;10.65;91.63;99342.19;4070724;29;20634;-86
2024/02/01 02:22:20;;;;;;;12.67;8.30;;;;;;;10.67;91.23;99339.50;4073679;29;20623;-86
2024/02/01 02:24:25;;;;;;;12.83;7.80;;;;;;;10.66;90.18;99327.38;4085303;28;20669;-86
2024/02/01 02:26:28;;;;;;;11.93;7.10;;;;;;;10.63;89.86;99332.72;4068111;29;20633;-86
2024/02/01 02:28:35;;;;;;;9.57;7.13;;;;;;;10.62;90.32;99331.06;4091346;28;20657;-86
2024/02/01 02:30:39;;;;;;;9.23;7.40;;;;;;;10.60;89.82;99344.19;4075067;29;21341;-85
2024/02/01 02:32:42;;;;;;;11.75;7.50;;;;;;;10.61;90.39;99342.41;4075056;29;21345;-85
2024/02/01 02:34:45;;;;;;;10.13;7.40;;;;;;;10.56;89.96;99342.63;4077760;29;20214;-85
2024/02/01 02:36:49;;;;;;;9.83;7.50;;;;;;;10.57;89.55;99338.25;4062714;29;20674;-85
2024/02/01 02:38:53;;;;;;;10.90;7.07;;;;;;;10.61;90.02;99331.97;4078452;29;20647;-85
2024/02/01 02:40:56;;;;;;;8.90;6.90;;;;;;;10.59;89.64;99324.22;4061237;29;20662;-86
2024/02/01 02:43:00;;;;;;;9.50;7.13;;;;;;;10.55;90.71;99317.44;4072186;29;20647;-85
2024/02/01 02:45:05;;;;;;;10.17;7.37;;;;;;;10.52;90.70;99322.81;4056034;29;20632;-85
2024/02/01 02:47:09;;;;;;;10.90;7.90;;;;;;;10.49;90.51;99320.38;4074913;29;21248;-85
2024/02/01 02:49:12;;;;;;;12.40;7.90;;;;;;;10.49;90.67;99323.00;4053542;29;20623;-85
2024/02/01 02:51:17;;;;;;;9.90;7.70;;;;;;;10.49;90.83;99327.34;4070894;29;21097;-85
2024/02/01 02:53:20;;;;;;;11.23;7.70;;;;;;;10.51;90.32;99325.53;4060080;29;21234;-85
2024/02/01 02:55:25;;;;;;;9.90;7.27;;;;;;;10.49;90.51;99327.34;4076257;29;20622;-85
2024/02/01 02:57:27;;;;;;;12.10;8.03;;;;;;;10.48;90.84;99323.06;4077143;29;20693;-86
2024/02/01 02:59:30;;;;;;;11.43;7.53;;;;;;;10.49;91.15;99319.53;4062195;29;20636;-85
2024/02/01 03:01:33;;;;;;;11.47;7.97;;;;;;;10.46;90.10;99327.50;4077038;29;20672;-85
2024/02/01 03:03:40;;;;;;;13.53;8.00;;;;;;;10.45;90.67;99320.59;4076785;29;21043;-85
2024/02/01 03:05:43;;;;;;;9.57;8.03;;;;;;;10.43;90.66;99322.41;4062419;29;21440;-85
2024/02/01 03:07:47;;;;;;;10.80;6.37;;;;;;;10.41;91.40;99319.88;4059169;29;20737;-85
2024/02/01 03:09:50;;;;;;;11.30;7.90;;;;;;;10.39;90.93;99310.47;4075791;29;20669;-86
2024/02/01 03:11:54;;;;;;;9.57;7.73;;;;;;;10.41;90.85;99322.50;4060030;29;20639;-85
2024/02/01 03:13:58;;;;;;;11.43;7.50;;;;;;;10.41;90.80;99324.28;4062508;29;20678;-85
2024/02/01 03:16:01;;;;;;;10.53;7.90;;;;;;;10.41;90.73;99313.84;4078312;29;20623;-85
2024/02/01 03:18:05;;;;;;;13.80;8.10;;;;;;;10.42;91.73;99328.56;4075579;29;20626;-85
2024/02/01 03:20:17;;;;;;;10.60;7.30;;;;;;;10.44;91.53;99322.34;4077638;29;20681;-86
2024/02/01 03:22:24;;;;;;;9.10;7.00;;;;;;;10.46;91.03;99317.94;4074455;29;20672;-85
2024/02/01 03:24:29;;;;;;;10.13;6.87;;;;;;;10.49;90.69;99317.78;4078816;29;20772;-86
2024/02/01 03:26:35;;;;;;;9.40;7.40;;;;;;;10.53;91.43;99308.03;4068784;29;20642;-86
2024/02/01 03:28:41;;;;;;;13.97;7.70;;;;;;;10.55;90.38;99304.41;4072880;29;20643;-86
2024/02/01 03:30:46;;;;;;;10.87;8.10;;;;;;;10.55;91.25;99296.59;4055503;29;22002;-86
2024/02/01 03:32:48;;;;;;;9.53;6.83;;;;;;;10.58;91.29;99300.81;4058787;29;20631;-86
2024/02/01 03:34:52;;;;;;;10.10;7.30;;;;;;;10.62;90.79;99308.41;4075185;29;20733;-86
2024/02/01 03:36:55;;;;;;;10.20;7.20;;;;;;;10.64;91.21;99300.50;4072070;28;20625;-86
2024/02/01 03:38:58;;;;;;;11.23;6.90;;;;;;;10.66;90.70;99293.44;4072557;29;20678;-87
2024/02/01 03:41:02;;;;;;;11.67;7.60;;;;;;;10.67;91.02;99292.53;4071983;29;21247;-86
2024/02/01 03:43:04;;;;;;;10.27;7.37;;;;;;;10.69;90.18;99299.38;4071240;29;20666;-86
2024/02/01 03:45:10;;;;;;;10.70;6.63;;;;;;;10.70;90.38;99295.84;4071435;29;20660;-86
2024/02/01 03:47:14;;;;;;;9.30;7.20;;;;;;;10.73;90.91;99300.06;4086386;28;20648;-86
2024/02/01 03:49:17;;;;;;;9.87;6.83;;;;;;;10.74;90.32;99299.16;4056201;29;20624;-86
2024/02/01 03:51:20;;;;;;;8.90;6.70;;;;;;;10.75;90.64;99304.28;4074632;29;21207;-86
2024/02/01 03:53:23;;;;;;;8.03;6.30;;;;;;;10.77;89.19;99309.44;4061687;29;21263;-86
2024/02/01 03:55:27;;;;;;;8.37;6.40;;;;;;;10.78;89.04;99313.72;4074174;29;21007;-86
2024/02/01 03:57:30;;;;;;;10.57;6.30;;;;;;;10.79;90.28;99312.81;4083151;28;20630;-86
2024/02/01 03:59:34;;;;;;;8.90;6.60;;;;;;;10.79;89.85;99304.97;4067966;29;20618;-86
2024/02/01 04:01:40;;;;;;;9.90;6.80;;;;;;;10.80;89.38;99301.47;4062861;29;20639;-86
2024/02/01 04:03:44;;;;;;;12.27;6.53;;;;;;;10.80;89.82;99305.72;4061173;29;20666;-86
2024/02/01 04:05:46;;;;;;;8.90;6.40;;;;;;;10.77;88.83;99299.84;4077706;29;20705;-86
2024/02/01 04:07:50;;;;;;;8.13;6.37;;;;;;;10.77;88.74;99304.22;4075164;29;20632;-86
2024/02/01 04:09:53;;;;;;;10.30;6.13;;;;;;;10.77;88.52;99306.84;4054481;29;20632;-86
2024/02/01 04:11:56;;;;;;;8.87;6.40;;;;;;;10.75;89.06;99303.44;4077839;29;20645;-86
2024/02/01 04:14:00;;;;;;;7.90;5.50;;;;;;;10.76;89.60;99320.78;4060953;29;20718;-86
2024/02/01 04:16:03;;;;;;;6.70;5.13;;;;;;;10.77;89.58;99319.88;4076167;29;20622;-86
2024/02/01 04:18:08;;;;;;;6.80;5.23;;;;;;;10.78;88.04;99305.88;4062282;29;20699;-86
2024/02/01 04:20:13;;;;;;;7.70;5.70;;;;;;;10.76;87.25;99305.97;4072528;29;20682;-86
2024/02/01 04:22:21;;;;;;;9.50;5.80;;;;;;;10.74;88.61;99297.38;4069795;29;20689;-86
2024/02/01 04:24:23;;;;;;;6.73;5.30;;;;;;;10.74;88.36;99293.94;4069206;29;20633;-86
2024/02/01 04:26:26;;;;;;;7.93;4.77;;;;;;;10.75;87.59;99293.00;4070820;29;20638;-86
2024/02/01 04:28:29;;;;;;;7.03;5.30;;;;;;;10.73;88.11;99287.84;4059626;29;20670;-86
2024/02/01 04:30:33;;;;;;;8.03;5.87;;;;;;;10.73;89.41;99279.19;4074663;29;20738;-86
2024/02/01 04:32:38;;;;;;;5.60;4.40;;;;;;;10.76;89.65;99281.66;4058241;29;20710;-85
2024/02/01 04:34:43;;;;;;;9.83;5.23;;;;;;;10.75;89.52;99288.63;4057486;29;20689;-86
2024/02/01 04:36:46;;;;;;;9.03;5.47;;;;;;;10.78;88.96;99290.22;4079411;29;20744;-86
2024/02/01 04:38:49;;;;;;;8.37;5.00;;;;;;;10.80;89.15;99299.69;4060641;29;20633;-86
2024/02/01 04:40:53;;;;;;;9.30;4.73;;;;;;;10.81;88.94;99304.00;4073363;29;20634;-86
2024/02/01 04:42:57;;;;;;;6.80;4.97;;;;;;;10.82;89.08;99295.22;4060907;29;20666;-86
2024/02/01 04:45:04;;;;;;;10.03;5.00;;;;;;;10.84;88.90;99298.63;4084054;28;20660;-86
2024/02/01 04:47:08;;;;;;;7.10;4.90;;;;;;;10.83;89.17;99292.53;4072292;29;20618;-86
2024/02/01 04:49:12;;;;;;;6.43;5.13;;;;;;;10.84;88.29;99298.63;4089738;28;20656;-85
2024/02/01 04:51:18;;;;;;;7.20;5.63;;;;;;;10.81;88.37;99297.00;4089392;28;20639;-86
2024/02/01 04:53:21;;;;;;;7.90;5.50;;;;;;;10.81;89.03;99290.94;4072220;29;20634;-86
2024/02/01 04:55:24;;;;;;;6.70;4.97;;;;;;;10.79;89.36;99284.09;4052618;29;20660;-86
2024/02/01 04:57:27;;;;;;;6.40;5.10;;;;;;;10.80;89.04;99288.41;4071882;29;20978;-86
2024/02/01 04:59:31;;;;;;;6.87;5.33;;;;;;;10.81;88.68;99281.34;4070019;29;20636;-86
2024/02/01 05:01:34;;;;;;;6.90;5.63;;;;;;;10.80;89.04;99272.75;4062198;29;20679;-86
2024/02/01 05:03:37;;;;;;;7.17;5.00;;;;;;;10.83;88.86;99276.03;4062005;29;20656;-86
2024/02/01 05:05:45;;;;;;;8.07;5.60;;;;;;;10.84;89.31;99277.75;4075508;29;20681;-86
2024/02/01 05:07:50;;;;;;;7.20;4.33;;;;;;;10.83;88.54;99276.03;4070516;29;20641;-86
2024/02/01 05:09:53;;;;;;;5.30;4.10;;;;;;;10.83;89.32;99276.88;4071462;29;20615;-86
2024/02/01 05:11:58;;;;;;;6.77;5.10;;;;;;;10.84;88.15;99277.75;4076815;29;20669;-86
2024/02/01 05:14:10;;;;;;;7.27;4.60;;;;;;;10.86;89.55;99281.09;4062578;29;20658;-86
2024/02/01 05:16:14;;;;;;;5.43;4.23;;;;;;;10.86;89.36;99279.34;4071238;29;21116;-86
2024/02/01 05:18:17;;;;;;;7.10;4.50;;;;;;;10.86;88.38;99276.72;4070689;29;20634;-86
2024/02/01 05:20:21;;;;;;;8.60;4.50;;;;;;;10.86;90.41;99279.34;4059080;29;20675;-86
2024/02/01 05:22:24;;;;;;;6.40;4.40;;;;;;;10.86;89.62;99275.91;4077931;29;20662;-86
2024/02/01 05:24:29;;;;;;;7.37;4.97;;;;;;;10.85;89.66;99275.06;4058012;29;20631;-86
2024/02/01 05:26:32;;;;;;;6.10;4.20;;;;;;;10.81;90.49;99270.06;4059729;29;21243;-85
2024/02/01 05:28:35;;;;;;;8.93;4.80;;;;;;;10.80;90.30;99265.75;4072973;29;20626;-86
2024/02/01 05:30:40;;;;;;;7.10;4.67;;;;;;;10.77;91.17;99258.09;4060479;29;20627;-86
2024/02/01 05:32:51;;;;;;;7.20;4.90;;;;;;;10.76;90.04;99260.78;4059762;29;20670;-85
2024/02/01 05:34:55;;;;;;;5.50;4.63;;;;;;;10.72;91.01;99261.84;4076207;29;20630;-86
2024/02/01 05:36:58;;;;;;;6.43;4.83;;;;;;;10.71;90.61;99260.16;4075711;29;21063;-85
2024/02/01 05:39:05;;;;;;;6.57;5.00;;;;;;;10.72;90.75;99259.22;4074149;29;20711;-86
2024/02/01 05:41:11;;;;;;;7.10;4.80;;;;;;;10.73;92.60;99258.31;4071955;29;20645;-86
2024/02/01 05:43:14;;;;;;;8.50;4.60;;;;;;;10.72;91.40;99256.63;4055208;29;20662;-85
2024/02/01 05:45:27;;;;;;;6.17;4.80;;;;;;;10.72;92.27;99259.22;4070122;29;21058;-85
2024/02/01 05:47:32;;;;;;;7.53;4.60;;;;;;;10.71;91.71;99257.56;4061330;29;20666;-85
2024/02/01 05:49:36;;;;;;;8.50;5.67;;;;;;;10.67;93.08;99262.06;4074401;29;20646;-85
2024/02/01 05:51:39;;;;;;;6.30;5.13;;;;;;;10.66;92.19;99268.22;4068902;29;21200;-86
2024/02/01 05:53:42;;;;;;;6.83;4.80;;;;;;;10.61;92.61;99270.19;4076670;29;20627;-85
2024/02/01 05:55:47;;;;;;;7.40;5.00;;;;;;;10.63;93.29;99277.94;4061481;29;20665;-85
2024/02/01 05:57:51;;;;;;;7.87;4.87;;;;;;;10.59;93.92;99281.66;4075484;29;20764;-85
2024/02/01 05:59:55;;;;;;;7.80;5.77;;;;;;;10.58;93.29;99282.56;4058000;29;20647;-85
2024/02/01 06:01:58;;;;;;;6.70;4.53;;;;;;;10.53;93.43;99281.94;4077641;29;20641;-85
2024/02/01 06:04:01;;;;;;;9.20;4.90;;;;;;;10.51;94.72;99292.47;4079620;29;21134;-86
2024/02/01 06:06:05;;;;;;;6.73;4.93;;;;;;;10.49;95.28;99296.03;4080355;29;20666;-86
2024/02/01 06:08:10;;;;;;;7.70;5.30;;;;;;;10.46;94.78;99294.44;4067442;29;20778;-86
2024/02/01 06:10:13;;;;;;;6.50;5.10;;;;;;;10.43;95.93;99297.22;4074771;29;20628;-86
2024/02/01 06:12:16;;;;;;;6.47;5.00;;;;;;;10.42;95.30;99294.69;4062741;29;20655;-86
2024/02/01 06:14:21;;;;;;;8.90;4.93;;;;;;;10.43;95.01;99301.56;4062104;29;20630;-86
2024/02/01 06:16:23;;;;;;;7.73;5.53;;;;;;;10.42;95.75;99299.88;4077473;29;20662;-86
2024/02/01 06:18:26;;;;;;;9.60;6.07;;;;;;;10.42;95.99;99302.50;4075428;29;20629;-86
2024/02/01 06:20:31;;;;;;;8.23;5.00;;;;;;;10.35;96.85;99299.31;4061356;29;20683;-86
2024/02/01 06:22:35;;;;;;;8.47;5.63;;;;;;;10.32;97.25;99293.41;4065236;29;20634;-86
2024/02/01 06:24:38;;;;;;;9.83;6.50;;;;;;;10.30;96.59;99284.84;4079032;29;20714;-86
2024/02/01 06:26:42;;;;;;;6.40;5.37;;;;;;;10.30;97.23;99297.88;4064252;29;21017;-86
2024/02/01 06:28:45;;;;;;;9.20;6.17;;;;;;;10.25;97.66;99291.19;4073981;29;21281;-86
2024/02/01 06:30:50;;;;;;;10.10;5.93;;;;;;;10.27;97.29;99295.41;4049923;29;20652;-86
2024/02/01 06:32:54;;;;;;;8.70;5.87;;;;;;;10.24;97.34;99290.34;4062493;29;20674;-86
2024/02/01 06:35:05;;;;;;;7.73;5.87;;;;;;;10.24;97.52;99295.56;4072797;29;20653;-86
2024/02/01 06:37:08;;;;;;;10.40;5.90;;;;;;;10.24;97.97;99289.47;4080319;29;20672;-86
2024/02/01 06:39:37;;;;;;;9.60;5.97;;;;;;;10.23;98.47;99299.06;4077840;29;21457;-86
2024/02/01 06:41:46;;;;;;;13.63;6.13;;;;;;;10.24;98.36;99311.19;4077194;29;20693;-85
2024/02/01 06:44:09;;;;;;;10.63;6.77;;;;;;;10.24;97.58;99311.19;4053107;29;20662;-85
2024/02/01 06:46:22;;;;;;;8.47;6.17;;;;;;;10.20;98.90;99320.06;4067256;29;20634;-86
2024/02/01 06:48:40;;;;;;;8.00;5.67;;;;;;;10.19;98.93;99320.97;4068829;29;20690;-86
2024/02/01 06:50:57;;;;;;;7.97;6.10;;;;;;;10.17;99.06;99315.00;4061517;29;20723;-86
2024/02/01 06:53:08;;;;;;;8.03;6.27;;;;;;;10.11;99.16;99327.47;4062155;29;20631;-86
2024/02/01 06:57:44;;;;;;;9.40;6.80;;;;;;;10.05;100.00;99328.59;4072543;29;20633;-86
2024/02/01 07:00:06;;;;;;;9.93;6.80;;;;;;;10.06;100.00;99335.50;4069981;29;20642;-86
2024/02/01 07:02:24;;;;;;;8.63;6.83;;;;;;;10.07;100.00;99332.00;4075775;29;20669;-85
2024/02/01 07:04:41;;;;;;;11.57;6.87;;;;;;;10.09;100.00;99324.94;4060965;29;20655;-86
2024/02/01 07:07:05;;;;;;;9.23;7.10;;;;;;;10.07;100.00;99318.97;4055344;29;21311;-86
2024/02/01 07:09:27;;;;;;;10.23;7.00;;;;;;;9.99;100.00;99310.63;4052641;29;20637;-86
2024/02/01 07:11:31;;;;;;;11.63;7.33;;;;;;;9.98;100.00;99308.09;4060793;29;20634;-85
2024/02/01 07:13:45;;;;;;;11.60;8.23;;;;;;;9.97;100.00;99312.47;4074867;29;20725;-86
2024/02/01 07:15:48;;;;;;;11.27;8.50;;;;;;;9.91;100.00;99301.47;4055673;29;20628;-86
2024/02/01 07:17:58;;;;;;;9.23;7.20;;;;;;;9.86;100.00;99300.81;4074887;29;21079;-86
2024/02/01 07:20:14;;;;;;;10.13;7.73;;;;;;;9.86;100.00;99308.63;4057494;29;20611;-86
2024/02/01 07:22:34;;;;;;;9.67;7.80;;;;;;;9.84;100.00;99303.50;4077740;29;20629;-86
2024/02/01 07:57:35;;;;;;;10.50;8.17;;;;;;;9.88;100.00;99318.09;4044392;29;20632;-86
2024/02/01 07:57:51;;;;;;;11.10;7.73;;;;;;;10.07;100.00;99339.81;4071523;29;21242;-83
2024/02/01 07:59:57;;;;;;;13.03;9.60;;;;;;;10.07;100.00;99342.44;4061899;29;21192;-85
2024/02/01 08:02:23;;;;;;;12.53;9.47;;;;;;;10.07;100.00;99347.66;4060263;29;21027;-84
2024/02/01 08:07:44;;;;;;;12.23;8.20;;;;;;;10.06;100.00;99342.50;4073215;29;20658;-86
2024/02/01 08:09:14;;;;;;;10.07;7.67;;;;;;;10.05;100.00;99343.41;4072592;29;20670;-85
2024/02/01 08:11:18;;;;;;;10.53;8.40;;;;;;;10.07;100.00;99345.03;4074787;29;20627;-85
2024/02/01 08:13:25;;;;;;;12.53;8.73;;;;;;;10.10;100.00;99350.09;4074823;29;20979;-86
2024/02/01 08:15:28;;;;;;;13.17;9.67;;;;;;;10.11;100.00;99356.16;4078496;29;20621;-85
2024/02/01 08:17:32;;;;;;;10.70;8.70;;;;;;;10.08;100.00;99353.69;4062611;29;20693;-85
2024/02/01 08:19:35;;;;;;;12.87;8.10;;;;;;;10.04;100.00;99350.38;4068509;29;20642;-84
2024/02/01 08:21:43;;;;;;;10.17;8.33;;;;;;;10.07;100.00;99352.84;4084735;28;20640;-85
2024/02/01 08:23:54;;;;;;;11.20;8.73;;;;;;;10.10;100.00;99354.44;4084568;28;20645;-85
2024/02/01 08:26:02;;;;;;;12.37;8.70;;;;;;;10.09;100.00;99355.41;4062310;29;20646;-83
2024/02/01 08:28:09;;;;;;;10.30;8.00;;;;;;;10.07;100.00;99355.47;4071234;29;20770;-83
2024/02/01 08:30:12;;;;;;;11.70;8.77;;;;;;;10.06;100.00;99360.75;4072532;29;20638;-83
2024/02/01 08:32:19;;;;;;;11.70;9.30;;;;;;;10.08;100.00;99362.34;4074089;29;20735;-83
2024/02/01 08:34:23;;;;;;;12.10;7.67;;;;;;;10.13;100.00;99370.81;4083289;28;20626;-83
2024/02/01 08:36:26;;;;;;;10.87;7.10;;;;;;;10.15;100.00;99368.09;4074927;29;20626;-83
2024/02/01 08:38:32;;;;;;;10.80;7.80;;;;;;;10.15;100.00;99368.09;4075314;29;20972;-83
2024/02/01 08:40:40;;;;;;;11.50;7.67;;;;;;;10.19;100.00;99370.50;4072758;29;20634;-84
2024/02/01 08:42:44;;;;;;;12.10;7.23;;;;;;;10.20;100.00;99367.00;4069582;29;20611;-83
2024/02/01 08:44:47;;;;;;;10.80;7.27;;;;;;;10.19;100.00;99380.09;4057127;29;20771;-83
2024/02/01 08:46:51;;;;;;;10.83;6.73;;;;;;;10.22;100.00;99380.78;4074817;29;20633;-83
2024/02/01 08:48:53;;;;;;;10.07;7.10;;;;;;;10.26;100.00;99384.13;4075713;29;20645;-82
2024/02/01 08:50:58;;;;;;;8.60;6.73;;;;;;;10.28;100.00;99390.09;4073654;29;20630;-84
2024/02/01 08:53:01;;;;;;;9.23;7.03;;;;;;;10.30;100.00;99398.69;4073962;29;20757;-84
2024/02/01 08:55:10;;;;;;;8.53;6.80;;;;;;;10.31;100.00;99397.78;4075458;29;20971;-84
2024/02/01 08:57:16;;;;;;;8.53;6.93;;;;;;;10.32;100.00;99400.31;4060428;29;20689;-84
2024/02/01 08:59:22;;;;;;;14.27;9.43;;;;;;;10.34;100.00;99395.88;4074131;29;20927;-84
2024/02/01 09:01:27;;;;;;;10.27;7.67;;;;;;;10.38;100.00;99405.25;4076200;29;20721;-85
2024/02/01 09:03:32;;;;;;;9.70;6.60;;;;;;;10.35;100.00;99402.78;4077774;29;20630;-85
2024/02/01 09:05:35;;;;;;;7.70;6.20;;;;;;;10.36;100.00;99405.31;4062747;29;20681;-84
2024/02/01 09:07:41;;;;;;;8.53;6.17;;;;;;;10.39;100.00;99404.34;4073958;29;20742;-85
2024/02/01 09:09:44;;;;;;;8.00;6.10;;;;;;;10.42;100.00;99406.81;4057536;29;20667;-86
2024/02/01 09:11:48;;;;;;;6.70;5.60;;;;;;;10.38;100.00;99406.09;4068902;29;20636;-84
2024/02/01 09:13:51;;;;;;;8.80;5.80;;;;;;;10.34;100.00;99404.56;4076006;29;21036;-85
2024/02/01 09:15:55;;;;;;;7.90;5.73;;;;;;;10.37;100.00;99406.16;4060162;29;20706;-84
2024/02/01 09:18:02;;;;;;;6.97;5.37;;;;;;;10.37;100.00;99411.38;4072142;29;20806;-84
2024/02/01 09:20:17;;;;;;;8.50;6.07;;;;;;;10.39;100.00;99413.00;4068673;29;20658;-84
2024/02/01 09:22:20;;;;;;;7.37;5.80;;;;;;;10.42;100.00;99417.25;4069182;29;20677;-85
2024/02/01 09:24:24;;;;;;;8.60;5.80;;;;;;;10.45;100.00;99419.72;4058823;29;20623;-84
2024/02/01 09:26:27;;;;;;;8.23;5.60;;;;;;;10.49;100.00;99418.63;4073075;29;21202;-84
2024/02/01 09:28:31;;;;;;;6.47;5.27;;;;;;;10.52;100.00;99414.09;4076571;29;20756;-84
2024/02/01 09:30:36;;;;;;;7.50;5.90;;;;;;;10.57;100.00;99417.38;4056844;29;20695;-86
2024/02/01 09:32:39;;;;;;;9.10;6.40;;;;;;;10.60;100.00;99416.34;4059545;29;20721;-85
2024/02/01 09:34:42;;;;;;;7.23;5.27;;;;;;;10.64;100.00;99410.91;4075342;29;20618;-84
2024/02/01 09:36:45;;;;;;;6.90;5.63;;;;;;;10.67;100.00;99410.78;4066013;29;20638;-84
2024/02/01 09:38:48;;;;;;;10.20;6.10;;;;;;;10.69;100.00;99410.69;4072253;29;20698;-84
2024/02/01 09:40:51;;;;;;;7.67;5.43;;;;;;;10.71;100.00;99406.28;4057899;29;20643;-84
2024/02/01 09:42:55;;;;;;;6.97;5.10;;;;;;;10.67;100.00;99412.53;4072712;29;20689;-84
2024/02/01 09:44:59;;;;;;;6.50;4.80;;;;;;;10.69;100.00;99418.53;4058758;29;20750;-86
2024/02/01 09:47:04;;;;;;;6.70;4.70;;;;;;;10.71;100.00;99417.53;4067514;29;20738;-86
2024/02/01 09:49:08;;;;;;;9.57;4.80;;;;;;;10.70;100.00;99413.25;4076691;29;20732;-88
2024/02/01 09:51:20;;;;;;;6.23;4.70;;;;;;;10.69;100.00;99431.56;4057884;29;20630;-88
2024/02/01 09:53:26;;;;;;;6.70;5.27;;;;;;;10.68;100.00;99422.91;4069293;29;20626;-87
2024/02/01 09:55:29;;;;;;;6.30;4.47;;;;;;;10.67;100.00;99428.19;4056017;29;20674;-88
2024/02/01 09:57:32;;;;;;;7.63;4.63;;;;;;;10.67;100.00;99426.44;4087673;28;20681;-88
2024/02/01 09:59:37;;;;;;;6.43;5.20;;;;;;;10.67;100.00;99428.19;4085082;28;20661;-88
2024/02/01 10:01:41;;;;;;;6.60;4.97;;;;;;;10.68;100.00;99435.13;4069113;29;20643;-87
2024/02/01 10:03:45;;;;;;;6.37;4.97;;;;;;;10.70;100.00;99438.50;4071849;29;20623;-87
2024/02/01 10:05:49;;;;;;;11.80;5.20;;;;;;;10.73;100.00;99443.56;4070141;29;21251;-87
2024/02/01 10:07:52;;;;;;;6.90;4.70;;;;;;;10.74;100.00;99438.28;4070693;29;20657;-86
2024/02/01 10:09:56;;;;;;;7.67;5.40;;;;;;;10.73;100.00;99435.75;4069689;29;20682;-87
2024/02/01 10:11:59;;;;;;;15.47;9.50;;;;;;;10.72;100.00;99441.88;4066335;29;20621;-87
2024/02/01 10:14:03;;;;;;;8.30;4.53;;;;;;;10.70;100.00;99438.50;4071329;29;20736;-87
2024/02/01 10:16:12;;;;;;;6.90;4.60;;;;;;;10.67;100.00;99439.47;4074442;29;20630;-87
2024/02/01 10:18:19;;;;;;;6.60;4.90;;;;;;;10.67;100.00;99436.03;4057759;29;20649;-87
2024/02/01 10:20:35;;;;;;;6.07;4.00;;;;;;;10.68;100.00;99437.72;4052472;29;20739;-87